Time;durP1;ratioP1;P1;durP2;ratioP2;P2;SDS_P1;SDS_P2;PMS_P1;PMS_P2;Temp;Humidity;BMP_temperature;BMP_pressure;BME280_temperature;BME280_humidity;BME280_pressure;Samples;Min_cycle;Max_cycle;Signal;HPM_P1;HPM_P2
2022/01/08 00:01:55;;;;;;;13.33;5.40;;;4.00;99.90;;;;;;5033155;28;20264;-70
2022/01/08 00:04:21;;;;;;;11.90;5.57;;;3.90;99.90;;;;;;5032993;28;20181;-70
2022/01/08 00:06:47;;;;;;;7.53;4.57;;;3.90;99.90;;;;;;5033474;28;20174;-71
2022/01/08 00:09:12;;;;;;;6.97;5.07;;;3.90;99.90;;;;;;5033348;28;20178;-70
2022/01/08 00:11:41;;;;;;;11.43;7.10;;;3.90;99.90;;;;;;5033043;28;20171;-70
2022/01/08 00:14:09;;;;;;;11.90;8.17;;;3.80;99.90;;;;;;5032498;28;20213;-70
2022/01/08 00:16:35;;;;;;;13.23;7.90;;;3.80;99.90;;;;;;5033346;28;20182;-70
2022/01/08 00:19:00;;;;;;;7.10;4.07;;;3.80;99.90;;;;;;5032057;28;20181;-70
2022/01/08 00:21:26;;;;;;;4.93;3.90;;;3.80;99.90;;;;;;5033051;28;20185;-68
2022/01/08 00:23:51;;;;;;;8.13;3.57;;;3.80;99.90;;;;;;5032648;28;20170;-68
2022/01/08 00:26:17;;;;;;;6.70;3.93;;;3.80;99.90;;;;;;5032982;28;20169;-69
2022/01/08 00:28:43;;;;;;;6.43;3.50;;;3.70;99.90;;;;;;5032605;28;20177;-70
2022/01/08 00:31:10;;;;;;;9.30;3.57;;;3.60;99.90;;;;;;5032964;28;20174;-70
2022/01/08 00:33:37;;;;;;;5.77;3.20;;;3.60;99.90;;;;;;5032866;28;20209;-69
2022/01/08 00:36:05;;;;;;;6.23;3.03;;;3.60;99.90;;;;;;5032998;28;20165;-68
2022/01/08 00:38:31;;;;;;;5.97;2.93;;;3.60;99.90;;;;;;5033081;28;20174;-69
2022/01/08 00:40:56;;;;;;;6.63;2.97;;;3.60;99.90;;;;;;5032906;28;20166;-69
2022/01/08 00:43:22;;;;;;;6.23;3.03;;;3.60;99.90;;;;;;5032154;28;20174;-69
2022/01/08 00:45:48;;;;;;;8.87;3.67;;;3.50;99.90;;;;;;5032875;28;20197;-69
2022/01/08 00:48:14;;;;;;;8.03;3.23;;;3.50;99.90;;;;;;5034594;28;20249;-69
2022/01/08 00:50:39;;;;;;;6.73;2.47;;;3.50;99.90;;;;;;5036878;28;20265;-69
2022/01/08 00:53:05;;;;;;;6.70;2.80;;;3.60;99.90;;;;;;5036521;28;20228;-70
2022/01/08 00:55:31;;;;;;;8.03;4.50;;;3.60;99.90;;;;;;5036602;28;20186;-71
2022/01/08 00:57:56;;;;;;;11.87;6.83;;;3.60;99.90;;;;;;5036298;28;20228;-71
2022/01/08 01:00:23;;;;;;;3.40;2.40;;;3.60;99.90;;;;;;5036298;28;20173;-70
2022/01/08 01:02:48;;;;;;;7.97;3.30;;;3.50;99.90;;;;;;5036475;28;20166;-70
2022/01/08 01:05:14;;;;;;;6.50;3.00;;;3.50;99.90;;;;;;5036190;28;20231;-70
2022/01/08 01:07:40;;;;;;;10.07;5.07;;;3.50;99.90;;;;;;5036420;28;20205;-69
2022/01/08 01:10:07;;;;;;;8.47;3.50;;;3.50;99.90;;;;;;5036130;28;20398;-70
2022/01/08 01:12:33;;;;;;;5.23;3.83;;;3.60;99.90;;;;;;5034925;28;20231;-69
2022/01/08 01:14:59;;;;;;;7.13;3.77;;;3.60;99.90;;;;;;5035759;28;20652;-68
2022/01/08 01:17:25;;;;;;;8.20;3.73;;;3.60;99.90;;;;;;5035791;28;20181;-69
2022/01/08 01:19:50;;;;;;;9.60;3.63;;;3.70;99.90;;;;;;5035999;28;20265;-69
2022/01/08 01:22:19;;;;;;;6.50;3.77;;;3.60;99.90;;;;;;5036118;28;20238;-70
2022/01/08 01:24:47;;;;;;;10.10;3.80;;;3.70;99.90;;;;;;5035519;28;20209;-70
2022/01/08 01:43:27;;;;;;;4.93;4.10;;;3.80;99.90;;;;;;5035905;28;20220;-70
2022/01/08 01:48:37;;;;;;;9.20;6.40;;;4.00;99.90;;;;;;5035774;28;20580;-70
2022/01/08 01:51:03;;;;;;;9.40;5.90;;;4.00;99.90;;;;;;5034628;28;20170;-69
2022/01/08 01:53:29;;;;;;;8.87;5.40;;;3.90;99.90;;;;;;5035171;28;20202;-69
2022/01/08 01:55:55;;;;;;;8.53;5.90;;;3.90;99.90;;;;;;5035348;28;20228;-68
2022/01/08 01:58:20;;;;;;;9.13;5.67;;;3.90;99.90;;;;;;5035202;28;20253;-69
2022/01/08 02:00:49;;;;;;;12.03;6.50;;;3.70;99.90;;;;;;5035623;28;20547;-69
2022/01/08 02:03:14;;;;;;;14.20;8.43;;;3.70;99.90;;;;;;5035294;28;20185;-69
2022/01/08 02:05:40;;;;;;;12.27;8.00;;;3.60;99.90;;;;;;5035533;28;20269;-69
2022/01/08 02:08:09;;;;;;;14.90;8.93;;;3.60;99.90;;;;;;5035556;28;20622;-70
2022/01/08 02:10:35;;;;;;;10.07;7.97;;;3.50;99.90;;;;;;5035134;28;20169;-69
2022/01/08 02:13:01;;;;;;;11.70;8.23;;;3.50;99.90;;;;;;5035195;28;20173;-70
2022/01/08 02:15:27;;;;;;;14.83;8.37;;;3.50;99.90;;;;;;5035465;28;20209;-70
2022/01/08 02:17:52;;;;;;;10.70;8.77;;;3.40;99.90;;;;;;5035375;28;20180;-70
2022/01/08 02:20:18;;;;;;;15.77;9.00;;;3.40;99.90;;;;;;5035459;28;20189;-69
2022/01/08 02:22:44;;;;;;;14.57;9.50;;;3.40;99.90;;;;;;5034954;28;20269;-70
2022/01/08 02:25:09;;;;;;;18.03;9.70;;;3.30;99.90;;;;;;5016717;28;20236;-69
2022/01/08 02:27:35;;;;;;;13.57;9.53;;;3.40;99.90;;;;;;5035220;28;20621;-69
2022/01/08 02:30:01;;;;;;;18.53;9.60;;;3.30;99.90;;;;;;5035178;28;20273;-69
2022/01/08 02:32:30;;;;;;;14.80;9.70;;;3.30;99.90;;;;;;5034899;28;20528;-69
2022/01/08 02:34:56;;;;;;;18.70;11.57;;;3.20;99.90;;;;;;5034638;28;20750;-70
2022/01/08 02:37:29;;;;;;;19.03;10.53;;;3.30;99.90;;;;;;5034973;28;20174;-69
2022/01/08 02:39:56;;;;;;;15.73;10.57;;;3.30;99.90;;;;;;5034933;28;20177;-70
2022/01/08 02:42:24;;;;;;;14.37;9.90;;;3.40;99.90;;;;;;5034660;28;20170;-69
2022/01/08 02:44:50;;;;;;;18.10;10.70;;;3.30;99.90;;;;;;5034622;28;20178;-69
2022/01/08 02:47:17;;;;;;;16.23;10.60;;;3.20;99.90;;;;;;5034708;28;20262;-70
2022/01/08 02:49:43;;;;;;;17.87;11.57;;;3.20;99.90;;;;;;5034910;28;20201;-70
2022/01/08 02:52:10;;;;;;;15.10;11.37;;;3.10;99.90;;;;;;5034668;28;20174;-69
2022/01/08 02:54:36;;;;;;;16.33;11.33;;;3.10;99.90;;;;;;5034032;28;20680;-70
2022/01/08 02:57:02;;;;;;;24.37;15.33;;;3.10;99.90;;;;;;5034801;28;20216;-70
2022/01/08 02:59:28;;;;;;;18.10;11.77;;;3.10;99.90;;;;;;5034657;28;20193;-70
2022/01/08 03:01:54;;;;;;;14.83;11.70;;;3.10;99.90;;;;;;5034442;28;20174;-70
2022/01/08 03:04:20;;;;;;;19.30;11.40;;;3.20;99.90;;;;;;5033971;28;20223;-69
2022/01/08 03:06:46;;;;;;;19.00;11.20;;;3.20;99.90;;;;;;5034383;28;20181;-69
2022/01/08 03:09:12;;;;;;;22.17;12.63;;;3.20;99.90;;;;;;5034032;28;20166;-71
2022/01/08 03:11:38;;;;;;;19.50;11.63;;;3.10;99.90;;;;;;5033204;28;20181;-70
2022/01/08 03:14:05;;;;;;;18.03;11.83;;;3.10;99.90;;;;;;5033888;28;20205;-70
2022/01/08 03:16:30;;;;;;;17.77;11.27;;;3.00;99.90;;;;;;5034221;28;20173;-70
2022/01/08 03:18:56;;;;;;;17.43;12.00;;;3.00;99.90;;;;;;5034105;28;20177;-69
2022/01/08 03:21:22;;;;;;;22.20;12.70;;;3.00;99.90;;;;;;5033960;28;20173;-70
2022/01/08 03:24:01;;;;;;;19.13;12.20;;;2.90;99.90;;;;;;5033405;28;20169;-70
2022/01/08 03:26:29;;;;;;;19.57;12.60;;;3.00;99.90;;;;;;5014363;28;20668;-69
2022/01/08 03:28:56;;;;;;;23.93;13.30;;;2.90;99.90;;;;;;5014242;28;20166;-70
2022/01/08 03:31:23;;;;;;;19.90;12.97;;;2.90;99.90;;;;;;5014153;28;20174;-71
2022/01/08 03:33:50;;;;;;;21.87;13.07;;;2.80;99.90;;;;;;5013504;28;20226;-71
2022/01/08 03:36:17;;;;;;;20.10;13.00;;;2.80;99.90;;;;;;5013652;28;20206;-69
2022/01/08 03:38:43;;;;;;;20.63;13.47;;;2.80;99.90;;;;;;5014044;28;20665;-69
2022/01/08 03:41:09;;;;;;;20.17;13.90;;;2.80;99.90;;;;;;5014017;28;20254;-69
2022/01/08 03:43:35;;;;;;;22.03;13.63;;;2.80;99.90;;;;;;5013739;28;20338;-69
2022/01/08 03:46:03;;;;;;;20.30;12.87;;;2.80;99.90;;;;;;5013994;28;20204;-69
2022/01/08 03:48:32;;;;;;;38.13;23.13;;;2.70;99.90;;;;;;5013686;28;20220;-69
2022/01/08 03:50:58;;;;;;;27.37;14.63;;;2.70;99.90;;;;;;5013372;28;20170;-70
2022/01/08 03:53:25;;;;;;;31.40;19.23;;;2.70;99.90;;;;;;5013403;28;20191;-69
2022/01/08 03:55:51;;;;;;;25.30;13.70;;;2.70;99.90;;;;;;5013781;28;20529;-69
2022/01/08 03:58:18;;;;;;;27.83;17.53;;;2.70;99.90;;;;;;5012328;28;20170;-69
2022/01/08 04:00:44;;;;;;;34.97;23.73;;;2.80;99.90;;;;;;5013812;28;20182;-69
2022/01/08 04:03:10;;;;;;;25.17;14.33;;;2.80;99.90;;;;;;5013259;28;20167;-69
2022/01/08 04:05:36;;;;;;;25.93;14.57;;;2.80;99.90;;;;;;5012877;28;20317;-69
2022/01/08 04:08:01;;;;;;;21.03;14.13;;;2.70;99.90;;;;;;5013874;28;20178;-69
2022/01/08 04:10:27;;;;;;;24.90;14.47;;;2.70;99.90;;;;;;5013403;28;20531;-69
2022/01/08 04:12:57;;;;;;;23.43;14.17;;;2.70;99.90;;;;;;5013507;28;20270;-69
2022/01/08 04:17:52;;;;;;;27.53;13.27;;;2.70;99.90;;;;;;5013365;28;20167;-69
2022/01/08 04:20:20;;;;;;;22.03;14.47;;;2.80;99.90;;;;;;5012735;28;20174;-69
2022/01/08 04:22:49;;;;;;;24.23;14.70;;;2.70;99.90;;;;;;5012966;28;20257;-69
2022/01/08 04:25:23;;;;;;;18.77;13.37;;;2.70;99.90;;;;;;5024932;28;20272;-70
2022/01/08 04:27:48;;;;;;;27.43;14.73;;;2.70;99.90;;;;;;5033244;28;20228;-69
2022/01/08 04:30:14;;;;;;;26.93;14.13;;;2.70;99.90;;;;;;5033091;28;20629;-69
2022/01/08 04:32:40;;;;;;;24.13;15.20;;;2.60;99.90;;;;;;5032510;28;20235;-69
2022/01/08 04:35:06;;;;;;;22.83;14.43;;;2.60;99.90;;;;;;5032165;28;20302;-68
2022/01/08 04:37:32;;;;;;;24.40;15.73;;;2.50;99.90;;;;;;5033110;28;20165;-69
2022/01/08 04:39:58;;;;;;;24.57;15.67;;;2.50;99.90;;;;;;5032785;28;20178;-69
2022/01/08 04:42:23;;;;;;;27.83;16.47;;;2.50;99.90;;;;;;5032732;28;20178;-69
2022/01/08 04:44:49;;;;;;;21.67;15.27;;;2.50;99.90;;;;;;5032451;28;20176;-68
2022/01/08 04:47:15;;;;;;;25.27;15.70;;;2.50;99.90;;;;;;5032547;28;20503;-69
2022/01/08 04:49:41;;;;;;;26.00;15.60;;;2.60;99.90;;;;;;5032201;28;20317;-69
2022/01/08 04:52:07;;;;;;;28.30;17.63;;;2.50;99.90;;;;;;5032747;28;20178;-69
2022/01/08 04:54:32;;;;;;;31.13;18.33;;;2.60;99.90;;;;;;5032358;28;20569;-69
2022/01/08 04:56:58;;;;;;;29.90;20.47;;;2.50;99.90;;;;;;5032721;28;20166;-70
2022/01/08 04:59:24;;;;;;;33.90;18.17;;;2.50;99.90;;;;;;5032708;28;20174;-70
2022/01/08 05:01:49;;;;;;;30.63;17.20;;;2.50;99.90;;;;;;5032286;28;20169;-69
2022/01/08 05:04:15;;;;;;;25.00;17.03;;;2.50;99.90;;;;;;5031673;28;20231;-69
2022/01/08 05:06:41;;;;;;;28.40;16.50;;;2.60;99.90;;;;;;5032844;28;20205;-69
2022/01/08 05:09:07;;;;;;;30.10;17.27;;;2.60;99.90;;;;;;5032465;28;20216;-69
2022/01/08 05:11:32;;;;;;;26.27;16.43;;;2.70;99.90;;;;;;5032544;28;20178;-70
2022/01/08 05:13:58;;;;;;;32.73;16.37;;;2.70;99.90;;;;;;5030719;28;20671;-69
2022/01/08 05:16:27;;;;;;;34.30;15.97;;;2.70;99.90;;;;;;5032266;28;20170;-69
2022/01/08 05:18:54;;;;;;;25.50;15.23;;;2.80;99.90;;;;;;5032176;28;20304;-69
2022/01/08 05:23:49;;;;;;;22.40;15.27;;;2.90;99.90;;;;;;5032006;28;20531;-69
2022/01/08 05:26:15;;;;;;;22.93;15.73;;;2.90;99.90;;;;;;5031279;28;20228;-68
2022/01/08 05:28:41;;;;;;;26.93;15.43;;;2.90;99.90;;;;;;5032355;28;20244;-69
2022/01/08 05:31:07;;;;;;;28.73;17.60;;;2.90;99.90;;;;;;5032306;28;20200;-70
2022/01/08 05:33:33;;;;;;;32.37;17.80;;;2.90;99.90;;;;;;5031957;28;20728;-70
2022/01/08 05:35:58;;;;;;;30.83;17.50;;;2.90;99.90;;;;;;5035835;28;20177;-70
2022/01/08 05:38:24;;;;;;;29.47;17.03;;;2.90;99.90;;;;;;5035883;28;20490;-69
2022/01/08 05:40:50;;;;;;;31.43;18.43;;;2.90;99.90;;;;;;5036024;28;20529;-69
2022/01/08 05:43:15;;;;;;;31.33;16.43;;;2.80;99.90;;;;;;5035431;28;20257;-69
2022/01/08 05:45:41;;;;;;;26.23;16.00;;;2.90;99.90;;;;;;5035273;28;20193;-69
2022/01/08 05:48:08;;;;;;;32.03;16.37;;;2.80;99.90;;;;;;5035175;28;20177;-69
2022/01/08 05:50:34;;;;;;;26.00;16.53;;;2.80;99.90;;;;;;5035517;28;20625;-70
2022/01/08 05:52:59;;;;;;;25.00;16.00;;;2.70;99.90;;;;;;5035065;28;20204;-69
2022/01/08 05:55:25;;;;;;;24.77;15.90;;;2.80;99.90;;;;;;5035476;28;20210;-69
2022/01/08 05:57:50;;;;;;;24.80;15.83;;;2.80;99.90;;;;;;5035533;28;20698;-69
2022/01/08 06:00:16;;;;;;;27.97;16.10;;;2.80;99.90;;;;;;5034821;28;20182;-70
2022/01/08 06:02:42;;;;;;;31.30;16.97;;;2.90;99.90;;;;;;5034508;28;20626;-69
2022/01/08 06:05:08;;;;;;;28.93;16.53;;;2.90;99.90;;;;;;5034912;28;20228;-69
2022/01/08 06:07:34;;;;;;;30.80;16.13;;;3.00;99.90;;;;;;5035598;28;20581;-69
2022/01/08 06:10:00;;;;;;;29.30;15.70;;;2.90;99.90;;;;;;5034060;28;20332;-70
2022/01/08 06:12:25;;;;;;;27.57;15.73;;;2.90;99.90;;;;;;5034977;28;20174;-69
2022/01/08 06:14:51;;;;;;;23.90;15.10;;;2.90;99.90;;;;;;5033345;28;20209;-69
2022/01/08 06:17:17;;;;;;;32.63;16.27;;;2.90;99.90;;;;;;5034525;28;20170;-69
2022/01/08 06:19:42;;;;;;;25.47;16.10;;;2.80;99.90;;;;;;5035353;28;20185;-69
2022/01/08 06:22:08;;;;;;;30.40;15.70;;;2.80;99.90;;;;;;5035051;28;20190;-69
2022/01/08 06:24:34;;;;;;;26.30;15.87;;;2.80;99.90;;;;;;5034513;28;20260;-69
2022/01/08 06:27:00;;;;;;;30.13;15.67;;;2.80;99.90;;;;;;5034727;28;20235;-69
2022/01/08 06:29:27;;;;;;;26.00;16.13;;;2.90;99.90;;;;;;5033458;28;20590;-70
2022/01/08 06:31:53;;;;;;;30.93;15.60;;;2.90;99.90;;;;;;5034128;28;20695;-69
2022/01/08 06:34:19;;;;;;;32.10;16.47;;;2.90;99.90;;;;;;5034663;28;20241;-69
2022/01/08 06:36:47;;;;;;;26.63;15.37;;;2.80;99.90;;;;;;5034775;28;20185;-69
2022/01/08 06:39:13;;;;;;;27.10;13.40;;;2.80;99.90;;;;;;5034759;28;20181;-69
2022/01/08 06:41:39;;;;;;;32.27;15.10;;;2.70;99.90;;;;;;5034492;28;20714;-69
2022/01/08 06:44:05;;;;;;;32.67;15.43;;;2.80;99.90;;;;;;5032592;28;20268;-69
2022/01/08 06:46:30;;;;;;;25.50;14.97;;;2.80;99.90;;;;;;5034316;28;20178;-70
2022/01/08 06:48:56;;;;;;;26.37;14.20;;;2.80;99.90;;;;;;5034403;28;20256;-69
2022/01/08 06:51:22;;;;;;;27.53;13.17;;;2.80;99.90;;;;;;5034624;28;20178;-69
2022/01/08 06:53:47;;;;;;;26.53;13.87;;;2.90;99.90;;;;;;5034050;28;20649;-70
2022/01/08 06:56:13;;;;;;;25.23;14.50;;;3.00;99.90;;;;;;5034438;28;20268;-70
2022/01/08 06:58:39;;;;;;;25.37;14.30;;;3.00;99.90;;;;;;5034012;28;20178;-70
2022/01/08 07:01:04;;;;;;;21.67;12.87;;;3.00;99.90;;;;;;5034113;28;20181;-70
2022/01/08 07:03:30;;;;;;;23.90;13.43;;;3.10;99.90;;;;;;5034147;28;20283;-71
2022/01/08 07:05:56;;;;;;;22.00;12.43;;;3.10;99.90;;;;;;5034230;28;20173;-69
2022/01/08 07:08:21;;;;;;;20.67;12.97;;;3.10;99.90;;;;;;5034209;28;20530;-70
2022/01/08 07:10:47;;;;;;;25.40;13.73;;;3.10;99.90;;;;;;5032401;28;20272;-70
2022/01/08 07:13:12;;;;;;;23.47;13.47;;;3.20;99.90;;;;;;5032992;28;20530;-69
2022/01/08 07:15:38;;;;;;;22.70;12.77;;;3.10;99.90;;;;;;5033588;28;20209;-69
2022/01/08 07:18:04;;;;;;;18.43;13.17;;;3.20;99.90;;;;;;5032643;28;20312;-69
2022/01/08 07:20:30;;;;;;;22.13;13.20;;;3.20;99.90;;;;;;5033922;28;20170;-69
2022/01/08 07:22:55;;;;;;;20.67;11.73;;;3.10;99.90;;;;;;5032179;28;20251;-69
2022/01/08 07:25:21;;;;;;;20.50;11.57;;;3.20;99.90;;;;;;5033539;28;20260;-70
2022/01/08 07:27:47;;;;;;;18.37;11.67;;;3.30;99.90;;;;;;5033411;28;20169;-70
2022/01/08 07:30:12;;;;;;;21.93;11.60;;;3.30;99.90;;;;;;5033566;28;20231;-69
2022/01/08 07:32:46;;;;;;;17.77;10.53;;;3.40;99.90;;;;;;5033796;28;20216;-69
2022/01/08 07:35:14;;;;;;;19.33;10.90;;;3.40;99.90;;;;;;5033256;28;20204;-69
2022/01/08 07:37:40;;;;;;;15.40;10.30;;;3.40;99.90;;;;;;5033686;28;20280;-70
2022/01/08 07:40:07;;;;;;;20.40;10.43;;;3.40;99.90;;;;;;5033540;28;20264;-70
2022/01/08 07:42:32;;;;;;;18.10;10.07;;;3.40;99.90;;;;;;5032992;28;20269;-67
2022/01/08 07:44:58;;;;;;;12.70;9.20;;;3.50;99.90;;;;;;5032837;28;20205;-70
2022/01/08 07:47:24;;;;;;;17.03;9.23;;;3.50;99.90;;;;;;5033102;28;20174;-69
2022/01/08 07:49:49;;;;;;;17.00;9.20;;;3.50;99.90;;;;;;5032888;28;20185;-69
2022/01/08 07:52:15;;;;;;;15.77;8.73;;;3.50;99.90;;;;;;5033518;28;20332;-69
2022/01/08 07:54:41;;;;;;;18.07;9.37;;;3.50;99.90;;;;;;5032663;28;20705;-69
2022/01/08 07:57:07;;;;;;;13.47;8.73;;;3.50;99.90;;;;;;5031661;28;20268;-69
2022/01/08 07:59:32;;;;;;;11.37;7.60;;;3.60;99.90;;;;;;5033355;28;20181;-70
2022/01/08 08:01:58;;;;;;;14.43;7.60;;;3.70;99.90;;;;;;5033333;28;20545;-70
2022/01/08 08:04:24;;;;;;;15.70;8.10;;;3.70;99.90;;;;;;5032855;28;20350;-71
2022/01/08 08:06:49;;;;;;;13.97;7.37;;;3.70;99.90;;;;;;5032979;28;20166;-69
2022/01/08 08:09:15;;;;;;;13.27;7.07;;;3.70;99.90;;;;;;5032688;28;20655;-70
2022/01/08 08:11:42;;;;;;;13.67;7.67;;;3.70;99.90;;;;;;5032577;28;20178;-69
2022/01/08 08:14:08;;;;;;;14.47;7.70;;;3.80;99.90;;;;;;5032631;28;20212;-69
2022/01/08 08:16:34;;;;;;;13.50;7.40;;;3.90;99.90;;;;;;5032860;28;20182;-70
2022/01/08 08:18:59;;;;;;;11.70;6.63;;;3.90;99.90;;;;;;5033187;28;20174;-70
2022/01/08 08:21:25;;;;;;;8.33;6.43;;;4.00;99.90;;;;;;5032633;28;20181;-69
2022/01/08 08:23:51;;;;;;;8.90;6.67;;;4.00;99.90;;;;;;5032541;28;20188;-70
2022/01/08 08:26:17;;;;;;;12.03;6.60;;;4.00;99.90;;;;;;5032316;28;20189;-69
2022/01/08 08:28:42;;;;;;;10.57;6.57;;;4.10;99.90;;;;;;5032894;28;20173;-68
2022/01/08 08:31:09;;;;;;;9.50;6.27;;;4.10;99.90;;;;;;5032770;28;20170;-70
2022/01/08 08:33:35;;;;;;;11.00;6.10;;;4.10;99.90;;;;;;5031158;28;20181;-69
2022/01/08 08:36:01;;;;;;;13.10;6.53;;;4.20;99.90;;;;;;5032881;28;20768;-69
2022/01/08 08:38:26;;;;;;;12.53;6.47;;;4.20;99.90;;;;;;5032533;28;20169;-69
2022/01/08 08:40:52;;;;;;;12.63;6.27;;;4.20;99.90;;;;;;5032197;28;20545;-68
2022/01/08 08:43:19;;;;;;;14.63;6.47;;;4.20;99.90;;;;;;5032814;28;20261;-70
2022/01/08 08:45:45;;;;;;;13.03;6.60;;;4.30;99.90;;;;;;5030909;28;20181;-68
2022/01/08 08:48:11;;;;;;;13.37;6.47;;;4.20;99.90;;;;;;5032397;28;20185;-71
2022/01/08 08:50:36;;;;;;;14.57;6.67;;;4.30;99.90;;;;;;5032265;28;20172;-69
2022/01/08 08:53:02;;;;;;;14.47;6.93;;;4.30;99.90;;;;;;5032155;28;20208;-69
2022/01/08 08:55:28;;;;;;;15.57;6.53;;;4.40;99.90;;;;;;5031965;28;20217;-69
2022/01/08 08:57:53;;;;;;;17.70;7.00;;;4.50;99.90;;;;;;5031915;28;20178;-69
2022/01/08 09:00:19;;;;;;;12.60;6.43;;;4.70;99.90;;;;;;5032392;28;20177;-69
2022/01/08 09:02:45;;;;;;;12.93;6.07;;;5.00;99.90;;;;;;5032831;28;20711;-70
2022/01/08 09:05:11;;;;;;;7.47;4.97;;;5.00;99.90;;;;;;5032474;28;20531;-70
2022/01/08 09:07:38;;;;;;;8.93;5.37;;;5.00;99.90;;;;;;5032275;28;20174;-70
2022/01/08 09:10:05;;;;;;;11.97;5.10;;;5.10;99.90;;;;;;5034422;28;20649;-71
2022/01/08 09:12:31;;;;;;;7.80;4.90;;;5.10;99.90;;;;;;5035432;28;20327;-70
2022/01/08 09:14:57;;;;;;;10.70;4.87;;;5.00;99.90;;;;;;5035735;28;20279;-69
2022/01/08 09:17:24;;;;;;;10.30;5.20;;;4.80;99.90;;;;;;5036055;28;20166;-68
2022/01/08 09:19:50;;;;;;;7.97;4.97;;;4.80;99.90;;;;;;5035999;28;20162;-69
2022/01/08 09:22:16;;;;;;;7.90;4.83;;;4.80;99.90;;;;;;5035706;28;20181;-69
2022/01/08 09:24:42;;;;;;;7.73;5.37;;;4.80;99.90;;;;;;5034807;28;20296;-70
2022/01/08 09:27:08;;;;;;;10.83;5.30;;;4.80;99.90;;;;;;5036146;28;20208;-69
2022/01/08 09:29:34;;;;;;;14.47;6.00;;;4.90;99.90;;;;;;5035695;28;20526;-69
2022/01/08 09:32:00;;;;;;;8.97;5.30;;;4.90;99.90;;;;;;5036105;28;20269;-70
2022/01/08 09:34:26;;;;;;;9.10;5.03;;;4.90;99.90;;;;;;5035324;28;20665;-69
2022/01/08 09:36:51;;;;;;;6.93;5.50;;;5.00;99.90;;;;;;5035617;28;20174;-70
2022/01/08 09:39:17;;;;;;;8.07;5.30;;;5.00;99.90;;;;;;5035422;28;20744;-69
2022/01/08 09:41:44;;;;;;;8.57;4.93;;;5.00;99.90;;;;;;5035270;28;20163;-70
2022/01/08 09:44:10;;;;;;;5.50;5.00;;;4.90;99.90;;;;;;5034683;28;20185;-69
2022/01/08 09:46:36;;;;;;;5.93;5.17;;;5.00;99.90;;;;;;5035580;28;20579;-70
2022/01/08 09:49:02;;;;;;;7.37;5.20;;;5.00;99.90;;;;;;5033882;28;20212;-70
2022/01/08 09:51:27;;;;;;;5.40;4.63;;;5.10;99.90;;;;;;5035147;28;20525;-70
2022/01/08 09:53:54;;;;;;;6.67;4.57;;;5.20;99.90;;;;;;5034689;28;20325;-69
2022/01/08 09:56:22;;;;;;;8.50;3.97;;;5.20;99.90;;;;;;5035282;28;20174;-69
2022/01/08 09:58:47;;;;;;;6.90;4.00;;;5.20;99.90;;;;;;5034814;28;20625;-70
2022/01/08 10:01:30;;;;;;;5.30;4.03;;;5.20;99.90;;;;;;5034205;28;20174;-70
2022/01/08 10:03:58;;;;;;;8.27;3.70;;;5.20;99.90;;;;;;5034650;28;20253;-70
2022/01/08 10:06:31;;;;;;;8.17;3.80;;;5.30;99.90;;;;;;5035194;28;20212;-69
2022/01/08 10:08:58;;;;;;;6.00;3.40;;;5.30;99.90;;;;;;5034683;28;20177;-69
2022/01/08 10:11:25;;;;;;;5.70;3.60;;;5.30;99.90;;;;;;5035094;28;20171;-69
2022/01/08 10:14:07;;;;;;;4.53;3.10;;;5.30;99.90;;;;;;5034771;28;20209;-70
2022/01/08 10:19:20;;;;;;;5.27;3.40;;;5.20;99.90;;;;;;5034532;28;20236;-70
2022/01/08 10:21:46;;;;;;;5.37;3.60;;;5.20;99.90;;;;;;5034754;28;20636;-70
2022/01/08 10:24:17;;;;;;;8.80;3.87;;;5.30;99.90;;;;;;5034010;28;20309;-69
2022/01/08 10:26:43;;;;;;;4.83;3.47;;;5.20;99.90;;;;;;5034984;28;20228;-71
2022/01/08 10:29:14;;;;;;;4.83;3.83;;;5.30;99.90;;;;;;5034936;28;20182;-70
2022/01/08 10:31:45;;;;;;;3.90;3.57;;;5.30;99.90;;;;;;5034797;28;20181;-70
2022/01/08 10:34:22;;;;;;;8.17;3.70;;;5.30;99.90;;;;;;5034361;28;20241;-70
2022/01/08 10:36:54;;;;;;;10.63;4.10;;;5.40;99.90;;;;;;5033994;28;20234;-69
2022/01/08 10:39:27;;;;;;;5.83;3.97;;;5.40;99.90;;;;;;5034200;28;20178;-69
2022/01/08 10:41:54;;;;;;;4.70;3.87;;;5.40;99.90;;;;;;5034496;28;20227;-70
2022/01/08 10:44:29;;;;;;;5.37;4.03;;;5.60;99.90;;;;;;5034051;28;20174;-69
2022/01/08 10:47:05;;;;;;;6.03;4.10;;;5.70;99.90;;;;;;5034261;28;20178;-69
2022/01/08 10:49:40;;;;;;;5.53;3.60;;;5.80;99.90;;;;;;5033980;28;20169;-69
2022/01/08 10:52:19;;;;;;;7.80;3.83;;;5.80;99.90;;;;;;5033608;28;20254;-70
2022/01/08 10:54:54;;;;;;;4.30;3.47;;;5.80;99.90;;;;;;5033652;28;20209;-69
2022/01/08 10:57:20;;;;;;;5.13;4.00;;;5.70;99.90;;;;;;5033881;28;20236;-70
2022/01/08 10:59:55;;;;;;;4.50;3.53;;;5.70;99.90;;;;;;5034170;28;20261;-70
2022/01/08 11:02:26;;;;;;;6.20;3.70;;;5.80;99.90;;;;;;5034230;28;20169;-70
2022/01/08 11:04:53;;;;;;;5.17;3.67;;;5.70;99.90;;;;;;5033054;28;20182;-70
2022/01/08 11:07:26;;;;;;;6.67;4.50;;;5.70;99.90;;;;;;5034084;28;20618;-69
2022/01/08 11:10:06;;;;;;;7.07;4.73;;;5.60;99.90;;;;;;5031974;28;20178;-69
2022/01/08 11:12:39;;;;;;;6.83;4.20;;;5.60;99.90;;;;;;5033823;28;20182;-71
2022/01/08 11:17:54;;;;;;;4.27;3.87;;;5.40;99.90;;;;;;5033766;28;20174;-70
2022/01/08 11:20:23;;;;;;;4.53;3.60;;;5.30;99.90;;;;;;5033233;28;20249;-70
2022/01/08 11:23:01;;;;;;;7.40;4.17;;;5.10;99.90;;;;;;5033476;28;20177;-71
2022/01/08 11:25:33;;;;;;;4.20;2.50;;;5.10;99.90;;;;;;5033072;28;20700;-70
2022/01/08 11:28:19;;;;;;;5.70;4.07;;;4.90;99.90;;;;;;5033749;28;20192;-71
2022/01/08 11:30:44;;;;;;;4.53;4.10;;;4.90;99.90;;;;;;5032807;28;20231;-70
2022/01/08 11:33:22;;;;;;;4.47;3.53;;;4.90;99.90;;;;;;5033030;28;20257;-71
2022/01/08 11:35:50;;;;;;;5.77;3.30;;;4.80;99.90;;;;;;5032657;28;20359;-70
2022/01/08 11:38:20;;;;;;;8.40;4.00;;;4.80;99.90;;;;;;5033493;28;20170;-72
2022/01/08 11:40:48;;;;;;;5.10;3.53;;;4.90;99.90;;;;;;5033216;28;20189;-71
2022/01/08 11:43:17;;;;;;;6.27;4.33;;;4.90;99.90;;;;;;5032327;28;20180;-70
2022/01/08 11:45:47;;;;;;;5.97;4.53;;;4.90;99.90;;;;;;5033193;28;20170;-70
2022/01/08 11:48:14;;;;;;;5.93;4.00;;;4.90;99.90;;;;;;5032730;28;20208;-70
2022/01/08 11:50:48;;;;;;;7.53;4.47;;;4.90;99.90;;;;;;5032818;28;20223;-70
2022/01/08 11:53:51;;;;;;;5.67;4.00;;;4.90;99.90;;;;;;5032986;28;20585;-70
2022/01/08 11:56:37;;;;;;;8.13;4.00;;;5.00;99.90;;;;;;5033540;28;20194;-70
2022/01/08 11:59:08;;;;;;;4.83;3.30;;;4.90;99.90;;;;;;5032580;28;20177;-69
2022/01/08 12:01:36;;;;;;;7.80;3.90;;;4.90;99.90;;;;;;5032530;28;20232;-71
2022/01/08 12:04:03;;;;;;;7.10;4.00;;;4.90;99.90;;;;;;5032219;28;20165;-70
2022/01/08 12:06:32;;;;;;;7.60;4.40;;;4.90;99.90;;;;;;5032943;28;20201;-70
2022/01/08 12:09:15;;;;;;;4.63;4.03;;;5.00;99.90;;;;;;5032229;28;20169;-70
2022/01/08 12:11:47;;;;;;;5.17;3.90;;;5.00;99.90;;;;;;5032566;28;20185;-71
2022/01/08 12:14:22;;;;;;;6.03;4.10;;;5.00;99.90;;;;;;5031072;28;20279;-68
2022/01/08 12:16:56;;;;;;;3.80;3.50;;;5.10;99.90;;;;;;5032310;28;20168;-70
2022/01/08 12:19:37;;;;;;;6.57;4.40;;;5.10;99.90;;;;;;5031945;28;20173;-70
2022/01/08 12:22:21;;;;;;;5.90;4.07;;;5.20;99.90;;;;;;5032095;28;20252;-70
2022/01/08 12:24:53;;;;;;;4.47;4.07;;;5.20;99.90;;;;;;5032468;28;20225;-70
2022/01/08 12:27:38;;;;;;;6.40;4.10;;;5.30;99.90;;;;;;5032787;28;20253;-68
2022/01/08 12:30:19;;;;;;;6.67;3.90;;;5.30;99.90;;;;;;5032067;28;20721;-69
2022/01/08 12:32:48;;;;;;;4.80;3.77;;;5.30;99.90;;;;;;5032004;28;20261;-69
2022/01/08 12:35:25;;;;;;;4.83;3.77;;;5.30;99.90;;;;;;5031290;28;20209;-70
2022/01/08 12:37:53;;;;;;;5.47;3.77;;;5.30;99.90;;;;;;5032496;28;20188;-69
2022/01/08 12:40:49;;;;;;;5.27;4.23;;;5.30;99.90;;;;;;5032347;28;20169;-70
2022/01/08 12:43:30;;;;;;;5.70;3.87;;;5.40;99.90;;;;;;5033786;28;20182;-70
2022/01/08 12:46:15;;;;;;;24.57;19.03;;;5.40;99.90;;;;;;5036367;28;20170;-70
2022/01/08 12:49:03;;;;;;;35.17;24.67;;;5.40;99.90;;;;;;5035641;28;20197;-70
2022/01/08 12:52:05;;;;;;;5.77;3.77;;;5.50;99.90;;;;;;5034595;28;20173;-69
2022/01/08 12:54:31;;;;;;;4.93;4.53;;;5.40;99.90;;;;;;5035915;28;20292;-70
2022/01/08 12:57:00;;;;;;;10.23;8.93;;;5.50;99.90;;;;;;5036207;28;20197;-70
2022/01/08 12:59:37;;;;;;;66.87;42.73;;;5.60;99.90;;;;;;5035998;28;20266;-70
2022/01/08 13:02:06;;;;;;;15.30;9.73;;;5.60;99.90;;;;;;5035582;28;20170;-71
2022/01/08 13:04:32;;;;;;;22.27;15.30;;;5.60;99.90;;;;;;5035570;28;20173;-70
2022/01/08 13:06:57;;;;;;;20.27;14.53;;;5.60;99.90;;;;;;5035899;28;20176;-70
2022/01/08 13:09:23;;;;;;;4.37;3.70;;;5.60;99.90;;;;;;5035042;28;20170;-69
2022/01/08 13:11:49;;;;;;;38.23;23.77;;;5.60;99.90;;;;;;5035878;28;20568;-69
2022/01/08 13:14:21;;;;;;;17.73;10.60;;;5.70;99.90;;;;;;5035244;28;20216;-71
2022/01/08 13:16:52;;;;;;;43.60;31.57;;;5.70;99.90;;;;;;5034861;28;20227;-70
2022/01/08 13:19:26;;;;;;;3.57;3.27;;;5.80;99.90;;;;;;5036024;28;20225;-71